sensor_id;sensor_type;location;lat;lon;timestamp;P1;durP1;ratioP1;P2;durP2;ratioP2
568;SDS011;269;48.884;9.192;2022-10-26T00:00:50;4.35;;;3.20;;
568;SDS011;269;48.884;9.192;2022-10-26T00:03:18;8.77;;;3.55;;
568;SDS011;269;48.884;9.192;2022-10-26T00:05:46;4.13;;;3.03;;
568;SDS011;269;48.884;9.192;2022-10-26T00:08:14;6.43;;;3.50;;
568;SDS011;269;48.884;9.192;2022-10-26T00:10:41;6.30;;;3.57;;
568;SDS011;269;48.884;9.192;2022-10-26T00:13:09;2.97;;;2.72;;
568;SDS011;269;48.884;9.192;2022-10-26T00:15:38;4.20;;;3.70;;
568;SDS011;269;48.884;9.192;2022-10-26T00:18:07;3.97;;;3.10;;
568;SDS011;269;48.884;9.192;2022-10-26T00:20:34;4.80;;;2.70;;
568;SDS011;269;48.884;9.192;2022-10-26T00:23:02;4.63;;;3.25;;
568;SDS011;269;48.884;9.192;2022-10-26T00:25:30;4.25;;;3.05;;
568;SDS011;269;48.884;9.192;2022-10-26T00:27:57;3.40;;;3.10;;
568;SDS011;269;48.884;9.192;2022-10-26T00:30:24;5.22;;;4.10;;
568;SDS011;269;48.884;9.192;2022-10-26T00:32:51;4.82;;;3.72;;
568;SDS011;269;48.884;9.192;2022-10-26T00:35:19;4.28;;;3.30;;
568;SDS011;269;48.884;9.192;2022-10-26T00:37:46;4.25;;;3.90;;
568;SDS011;269;48.884;9.192;2022-10-26T00:40:14;8.73;;;4.45;;
568;SDS011;269;48.884;9.192;2022-10-26T00:42:41;5.25;;;4.75;;
568;SDS011;269;48.884;9.192;2022-10-26T00:45:15;6.95;;;4.95;;
568;SDS011;269;48.884;9.192;2022-10-26T00:47:46;7.13;;;5.17;;
568;SDS011;269;48.884;9.192;2022-10-26T00:50:18;5.60;;;5.00;;
568;SDS011;269;48.884;9.192;2022-10-26T00:52:48;5.78;;;4.50;;
568;SDS011;269;48.884;9.192;2022-10-26T00:55:19;8.50;;;5.85;;
568;SDS011;269;48.884;9.192;2022-10-26T00:57:48;8.40;;;5.30;;
568;SDS011;269;48.884;9.192;2022-10-26T01:00:18;7.10;;;5.65;;
568;SDS011;269;48.884;9.192;2022-10-26T01:02:46;6.25;;;5.65;;
568;SDS011;269;48.884;9.192;2022-10-26T01:05:16;6.43;;;5.45;;
568;SDS011;269;48.884;9.192;2022-10-26T01:07:44;8.60;;;5.85;;
568;SDS011;269;48.884;9.192;2022-10-26T01:10:13;10.15;;;5.82;;
568;SDS011;269;48.884;9.192;2022-10-26T01:12:42;9.55;;;5.80;;
568;SDS011;269;48.884;9.192;2022-10-26T01:15:09;7.18;;;5.45;;
568;SDS011;269;48.884;9.192;2022-10-26T01:17:42;6.78;;;5.57;;
568;SDS011;269;48.884;9.192;2022-10-26T01:20:31;8.65;;;5.85;;
568;SDS011;269;48.884;9.192;2022-10-26T01:23:21;6.22;;;5.60;;
568;SDS011;269;48.884;9.192;2022-10-26T01:31:53;11.93;;;6.15;;
568;SDS011;269;48.884;9.192;2022-10-26T01:34:26;9.27;;;6.50;;
568;SDS011;269;48.884;9.192;2022-10-26T01:36:59;7.13;;;5.82;;
568;SDS011;269;48.884;9.192;2022-10-26T01:39:34;6.95;;;5.95;;
568;SDS011;269;48.884;9.192;2022-10-26T01:42:07;5.65;;;5.05;;
568;SDS011;269;48.884;9.192;2022-10-26T01:44:38;6.63;;;5.90;;
568;SDS011;269;48.884;9.192;2022-10-26T01:47:09;6.82;;;5.78;;
568;SDS011;269;48.884;9.192;2022-10-26T01:49:39;7.82;;;5.78;;
568;SDS011;269;48.884;9.192;2022-10-26T01:52:11;7.00;;;5.93;;
568;SDS011;269;48.884;9.192;2022-10-26T01:54:38;9.68;;;5.78;;
568;SDS011;269;48.884;9.192;2022-10-26T01:57:06;10.30;;;6.22;;
568;SDS011;269;48.884;9.192;2022-10-26T01:59:45;6.65;;;5.55;;
568;SDS011;269;48.884;9.192;2022-10-26T02:02:28;8.10;;;6.07;;
568;SDS011;269;48.884;9.192;2022-10-26T02:05:19;11.80;;;6.63;;
568;SDS011;269;48.884;9.192;2022-10-26T02:08:13;7.20;;;5.70;;
568;SDS011;269;48.884;9.192;2022-10-26T02:10:48;7.38;;;5.75;;
568;SDS011;269;48.884;9.192;2022-10-26T02:13:29;10.40;;;6.78;;
568;SDS011;269;48.884;9.192;2022-10-26T02:16:00;7.63;;;6.47;;
568;SDS011;269;48.884;9.192;2022-10-26T02:18:41;8.30;;;7.20;;
568;SDS011;269;48.884;9.192;2022-10-26T02:21:13;7.45;;;6.75;;
568;SDS011;269;48.884;9.192;2022-10-26T02:23:44;7.68;;;6.55;;
568;SDS011;269;48.884;9.192;2022-10-26T02:26:14;8.63;;;6.93;;
568;SDS011;269;48.884;9.192;2022-10-26T02:28:45;7.03;;;6.32;;
568;SDS011;269;48.884;9.192;2022-10-26T02:31:16;8.98;;;7.35;;
568;SDS011;269;48.884;9.192;2022-10-26T02:33:47;8.10;;;7.28;;
568;SDS011;269;48.884;9.192;2022-10-26T02:36:17;9.73;;;6.78;;
568;SDS011;269;48.884;9.192;2022-10-26T02:38:48;13.32;;;7.70;;
568;SDS011;269;48.884;9.192;2022-10-26T02:41:19;7.18;;;6.40;;
568;SDS011;269;48.884;9.192;2022-10-26T02:43:50;7.05;;;6.35;;
568;SDS011;269;48.884;9.192;2022-10-26T02:46:22;7.70;;;7.00;;
568;SDS011;269;48.884;9.192;2022-10-26T02:48:53;7.38;;;6.00;;
568;SDS011;269;48.884;9.192;2022-10-26T02:51:24;8.48;;;7.20;;
568;SDS011;269;48.884;9.192;2022-10-26T02:53:58;7.47;;;6.68;;
568;SDS011;269;48.884;9.192;2022-10-26T02:56:32;6.97;;;6.28;;
568;SDS011;269;48.884;9.192;2022-10-26T02:59:05;6.75;;;6.15;;
568;SDS011;269;48.884;9.192;2022-10-26T03:01:35;7.65;;;6.85;;
568;SDS011;269;48.884;9.192;2022-10-26T03:04:03;8.15;;;6.25;;
568;SDS011;269;48.884;9.192;2022-10-26T03:06:30;9.20;;;6.18;;
568;SDS011;269;48.884;9.192;2022-10-26T03:08:58;7.57;;;6.57;;
568;SDS011;269;48.884;9.192;2022-10-26T03:11:25;8.07;;;6.40;;
568;SDS011;269;48.884;9.192;2022-10-26T03:13:52;8.80;;;6.03;;
568;SDS011;269;48.884;9.192;2022-10-26T03:16:19;6.95;;;6.25;;
568;SDS011;269;48.884;9.192;2022-10-26T03:18:46;7.50;;;6.30;;
568;SDS011;269;48.884;9.192;2022-10-26T03:21:14;7.22;;;5.90;;
568;SDS011;269;48.884;9.192;2022-10-26T03:23:42;7.18;;;6.05;;
568;SDS011;269;48.884;9.192;2022-10-26T03:26:10;10.85;;;6.85;;
568;SDS011;269;48.884;9.192;2022-10-26T03:28:37;6.95;;;6.05;;
568;SDS011;269;48.884;9.192;2022-10-26T03:31:05;6.53;;;5.93;;
568;SDS011;269;48.884;9.192;2022-10-26T03:33:32;6.73;;;6.03;;
568;SDS011;269;48.884;9.192;2022-10-26T03:35:59;9.20;;;6.30;;
568;SDS011;269;48.884;9.192;2022-10-26T03:38:28;6.13;;;5.37;;
568;SDS011;269;48.884;9.192;2022-10-26T03:40:54;7.53;;;5.87;;
568;SDS011;269;48.884;9.192;2022-10-26T03:43:21;6.88;;;5.18;;
568;SDS011;269;48.884;9.192;2022-10-26T03:45:49;7.70;;;6.33;;
568;SDS011;269;48.884;9.192;2022-10-26T03:48:16;6.57;;;5.57;;
568;SDS011;269;48.884;9.192;2022-10-26T03:50:43;9.82;;;7.10;;
568;SDS011;269;48.884;9.192;2022-10-26T03:53:10;8.68;;;6.28;;
568;SDS011;269;48.884;9.192;2022-10-26T03:55:42;6.88;;;6.18;;
568;SDS011;269;48.884;9.192;2022-10-26T03:58:09;7.50;;;6.00;;
568;SDS011;269;48.884;9.192;2022-10-26T04:00:36;6.83;;;6.20;;
568;SDS011;269;48.884;9.192;2022-10-26T04:03:03;6.80;;;6.15;;
568;SDS011;269;48.884;9.192;2022-10-26T04:05:30;8.27;;;6.87;;
568;SDS011;269;48.884;9.192;2022-10-26T04:07:59;7.50;;;6.10;;
568;SDS011;269;48.884;9.192;2022-10-26T04:10:27;7.28;;;6.32;;
568;SDS011;269;48.884;9.192;2022-10-26T04:12:56;7.25;;;6.32;;
568;SDS011;269;48.884;9.192;2022-10-26T04:15:26;7.32;;;5.35;;
568;SDS011;269;48.884;9.192;2022-10-26T04:17:56;6.73;;;6.13;;
568;SDS011;269;48.884;9.192;2022-10-26T04:20:24;8.35;;;6.00;;
568;SDS011;269;48.884;9.192;2022-10-26T04:22:55;7.47;;;6.25;;
568;SDS011;269;48.884;9.192;2022-10-26T04:25:23;9.82;;;7.15;;
568;SDS011;269;48.884;9.192;2022-10-26T04:27:50;7.38;;;6.60;;
568;SDS011;269;48.884;9.192;2022-10-26T04:30:20;7.60;;;6.37;;
568;SDS011;269;48.884;9.192;2022-10-26T04:32:47;8.30;;;7.18;;
568;SDS011;269;48.884;9.192;2022-10-26T04:35:14;8.65;;;6.72;;
568;SDS011;269;48.884;9.192;2022-10-26T04:37:42;9.88;;;6.30;;
568;SDS011;269;48.884;9.192;2022-10-26T04:40:09;9.77;;;6.85;;
568;SDS011;269;48.884;9.192;2022-10-26T04:42:39;7.75;;;6.55;;
568;SDS011;269;48.884;9.192;2022-10-26T04:45:08;6.88;;;6.18;;
568;SDS011;269;48.884;9.192;2022-10-26T04:47:37;9.32;;;6.57;;
568;SDS011;269;48.884;9.192;2022-10-26T04:50:05;10.88;;;6.60;;
568;SDS011;269;48.884;9.192;2022-10-26T04:52:34;7.60;;;5.50;;
568;SDS011;269;48.884;9.192;2022-10-26T04:55:02;8.38;;;5.93;;
568;SDS011;269;48.884;9.192;2022-10-26T04:57:30;6.68;;;5.97;;
568;SDS011;269;48.884;9.192;2022-10-26T04:59:58;5.80;;;5.00;;
568;SDS011;269;48.884;9.192;2022-10-26T05:02:26;7.32;;;4.70;;
568;SDS011;269;48.884;9.192;2022-10-26T05:04:54;6.15;;;4.88;;
568;SDS011;269;48.884;9.192;2022-10-26T05:07:22;5.75;;;4.53;;
568;SDS011;269;48.884;9.192;2022-10-26T05:09:49;5.32;;;4.80;;
568;SDS011;269;48.884;9.192;2022-10-26T05:12:16;6.28;;;4.80;;
568;SDS011;269;48.884;9.192;2022-10-26T05:14:44;6.38;;;4.60;;
568;SDS011;269;48.884;9.192;2022-10-26T05:17:11;7.97;;;5.07;;
568;SDS011;269;48.884;9.192;2022-10-26T05:19:37;5.33;;;4.93;;
568;SDS011;269;48.884;9.192;2022-10-26T05:22:06;7.22;;;5.32;;
568;SDS011;269;48.884;9.192;2022-10-26T05:24:34;5.70;;;3.80;;
568;SDS011;269;48.884;9.192;2022-10-26T05:27:00;6.38;;;5.00;;
568;SDS011;269;48.884;9.192;2022-10-26T05:29:28;8.10;;;4.70;;
568;SDS011;269;48.884;9.192;2022-10-26T05:31:55;8.40;;;4.90;;
568;SDS011;269;48.884;9.192;2022-10-26T05:34:22;6.50;;;4.70;;
568;SDS011;269;48.884;9.192;2022-10-26T05:36:51;5.68;;;4.72;;
568;SDS011;269;48.884;9.192;2022-10-26T05:39:20;4.75;;;4.28;;
568;SDS011;269;48.884;9.192;2022-10-26T05:41:47;5.57;;;4.50;;
568;SDS011;269;48.884;9.192;2022-10-26T05:44:14;4.95;;;4.22;;
568;SDS011;269;48.884;9.192;2022-10-26T05:46:41;5.03;;;4.13;;
568;SDS011;269;48.884;9.192;2022-10-26T05:49:08;6.35;;;4.75;;
568;SDS011;269;48.884;9.192;2022-10-26T05:51:36;8.65;;;4.97;;
568;SDS011;269;48.884;9.192;2022-10-26T05:54:04;12.07;;;4.70;;
568;SDS011;269;48.884;9.192;2022-10-26T05:56:34;4.70;;;4.30;;
568;SDS011;269;48.884;9.192;2022-10-26T05:59:03;6.30;;;4.13;;
568;SDS011;269;48.884;9.192;2022-10-26T06:01:37;6.83;;;4.67;;
568;SDS011;269;48.884;9.192;2022-10-26T06:04:17;4.43;;;4.03;;
568;SDS011;269;48.884;9.192;2022-10-26T06:06:54;5.00;;;4.10;;
568;SDS011;269;48.884;9.192;2022-10-26T06:09:23;8.50;;;4.17;;
568;SDS011;269;48.884;9.192;2022-10-26T06:11:53;5.70;;;4.40;;
568;SDS011;269;48.884;9.192;2022-10-26T06:14:22;6.67;;;4.30;;
568;SDS011;269;48.884;9.192;2022-10-26T06:16:57;5.60;;;4.33;;
568;SDS011;269;48.884;9.192;2022-10-26T06:19:35;5.47;;;4.27;;
568;SDS011;269;48.884;9.192;2022-10-26T06:22:15;4.50;;;3.87;;
568;SDS011;269;48.884;9.192;2022-10-26T06:24:53;4.57;;;3.73;;
568;SDS011;269;48.884;9.192;2022-10-26T06:27:31;5.20;;;3.83;;
568;SDS011;269;48.884;9.192;2022-10-26T06:30:06;4.43;;;3.90;;
568;SDS011;269;48.884;9.192;2022-10-26T06:32:36;4.33;;;3.93;;
568;SDS011;269;48.884;9.192;2022-10-26T06:35:09;4.67;;;4.00;;
568;SDS011;269;48.884;9.192;2022-10-26T06:37:46;4.30;;;3.90;;
568;SDS011;269;48.884;9.192;2022-10-26T06:40:16;6.93;;;4.03;;
568;SDS011;269;48.884;9.192;2022-10-26T06:42:46;4.93;;;3.97;;
568;SDS011;269;48.884;9.192;2022-10-26T06:45:14;5.57;;;3.87;;
568;SDS011;269;48.884;9.192;2022-10-26T06:47:44;5.83;;;4.27;;
568;SDS011;269;48.884;9.192;2022-10-26T06:50:24;5.23;;;4.73;;
568;SDS011;269;48.884;9.192;2022-10-26T06:52:59;7.30;;;4.40;;
568;SDS011;269;48.884;9.192;2022-10-26T06:55:37;4.57;;;4.17;;
568;SDS011;269;48.884;9.192;2022-10-26T06:58:09;6.33;;;4.10;;
568;SDS011;269;48.884;9.192;2022-10-26T07:00:40;5.63;;;3.80;;
568;SDS011;269;48.884;9.192;2022-10-26T07:03:09;6.27;;;4.40;;
568;SDS011;269;48.884;9.192;2022-10-26T07:05:36;5.73;;;4.50;;
568;SDS011;269;48.884;9.192;2022-10-26T07:08:03;5.17;;;4.10;;
568;SDS011;269;48.884;9.192;2022-10-26T07:10:30;6.47;;;4.63;;
568;SDS011;269;48.884;9.192;2022-10-26T07:12:59;5.60;;;5.00;;
568;SDS011;269;48.884;9.192;2022-10-26T07:15:28;5.87;;;4.70;;
568;SDS011;269;48.884;9.192;2022-10-26T07:17:55;6.67;;;5.13;;
568;SDS011;269;48.884;9.192;2022-10-26T07:20:22;5.80;;;3.97;;
568;SDS011;269;48.884;9.192;2022-10-26T07:22:52;7.50;;;4.70;;
568;SDS011;269;48.884;9.192;2022-10-26T07:25:19;4.60;;;4.13;;
568;SDS011;269;48.884;9.192;2022-10-26T07:27:47;5.37;;;4.87;;
568;SDS011;269;48.884;9.192;2022-10-26T07:30:14;5.37;;;4.87;;
568;SDS011;269;48.884;9.192;2022-10-26T07:32:43;5.90;;;4.33;;
568;SDS011;269;48.884;9.192;2022-10-26T07:35:10;5.20;;;4.03;;
568;SDS011;269;48.884;9.192;2022-10-26T07:37:37;6.10;;;4.20;;
568;SDS011;269;48.884;9.192;2022-10-26T07:40:05;5.23;;;4.70;;
568;SDS011;269;48.884;9.192;2022-10-26T07:42:33;6.27;;;4.60;;
568;SDS011;269;48.884;9.192;2022-10-26T07:45:02;5.53;;;4.00;;
568;SDS011;269;48.884;9.192;2022-10-26T07:47:30;6.60;;;3.63;;
568;SDS011;269;48.884;9.192;2022-10-26T07:49:58;4.40;;;3.40;;
568;SDS011;269;48.884;9.192;2022-10-26T07:52:26;6.53;;;3.97;;
568;SDS011;269;48.884;9.192;2022-10-26T07:54:53;4.03;;;3.60;;
568;SDS011;269;48.884;9.192;2022-10-26T07:57:20;4.40;;;3.70;;
568;SDS011;269;48.884;9.192;2022-10-26T07:59:47;5.07;;;3.53;;
568;SDS011;269;48.884;9.192;2022-10-26T08:02:14;5.90;;;3.97;;
568;SDS011;269;48.884;9.192;2022-10-26T08:04:41;5.33;;;4.13;;
568;SDS011;269;48.884;9.192;2022-10-26T08:07:09;4.40;;;3.70;;
568;SDS011;269;48.884;9.192;2022-10-26T08:09:37;4.13;;;3.40;;
568;SDS011;269;48.884;9.192;2022-10-26T08:12:04;4.77;;;3.33;;
568;SDS011;269;48.884;9.192;2022-10-26T08:14:31;4.10;;;3.70;;
568;SDS011;269;48.884;9.192;2022-10-26T08:16:59;4.83;;;3.50;;
568;SDS011;269;48.884;9.192;2022-10-26T08:19:26;3.73;;;3.43;;
568;SDS011;269;48.884;9.192;2022-10-26T08:21:53;5.00;;;3.60;;
568;SDS011;269;48.884;9.192;2022-10-26T08:24:22;5.50;;;3.50;;
568;SDS011;269;48.884;9.192;2022-10-26T08:26:49;4.50;;;3.57;;
568;SDS011;269;48.884;9.192;2022-10-26T08:29:16;3.93;;;3.57;;
568;SDS011;269;48.884;9.192;2022-10-26T08:31:43;3.73;;;3.10;;
568;SDS011;269;48.884;9.192;2022-10-26T08:34:12;7.23;;;3.40;;
568;SDS011;269;48.884;9.192;2022-10-26T08:36:39;3.87;;;2.90;;
568;SDS011;269;48.884;9.192;2022-10-26T08:39:07;4.53;;;3.30;;
568;SDS011;269;48.884;9.192;2022-10-26T08:41:36;3.87;;;2.90;;
568;SDS011;269;48.884;9.192;2022-10-26T08:44:10;6.40;;;2.80;;
568;SDS011;269;48.884;9.192;2022-10-26T08:46:47;4.10;;;2.90;;
568;SDS011;269;48.884;9.192;2022-10-26T08:49:19;4.90;;;2.60;;
568;SDS011;269;48.884;9.192;2022-10-26T08:51:49;4.63;;;2.90;;
568;SDS011;269;48.884;9.192;2022-10-26T08:54:21;3.47;;;3.17;;
568;SDS011;269;48.884;9.192;2022-10-26T08:57:01;4.17;;;2.83;;
568;SDS011;269;48.884;9.192;2022-10-26T08:59:37;4.30;;;2.73;;
568;SDS011;269;48.884;9.192;2022-10-26T09:02:10;4.90;;;2.80;;
568;SDS011;269;48.884;9.192;2022-10-26T09:04:38;4.60;;;2.73;;
568;SDS011;269;48.884;9.192;2022-10-26T09:07:07;5.37;;;3.13;;
568;SDS011;269;48.884;9.192;2022-10-26T09:09:45;4.80;;;2.50;;
568;SDS011;269;48.884;9.192;2022-10-26T09:12:18;5.07;;;2.57;;
568;SDS011;269;48.884;9.192;2022-10-26T09:14:55;5.50;;;2.60;;
568;SDS011;269;48.884;9.192;2022-10-26T09:17:31;4.20;;;2.80;;
568;SDS011;269;48.884;9.192;2022-10-26T09:20:13;5.00;;;2.40;;
568;SDS011;269;48.884;9.192;2022-10-26T09:22:52;3.97;;;2.53;;
568;SDS011;269;48.884;9.192;2022-10-26T09:25:28;3.13;;;2.23;;
568;SDS011;269;48.884;9.192;2022-10-26T09:28:04;3.30;;;2.60;;
568;SDS011;269;48.884;9.192;2022-10-26T09:30:40;4.63;;;2.40;;
568;SDS011;269;48.884;9.192;2022-10-26T09:33:11;4.40;;;2.20;;
568;SDS011;269;48.884;9.192;2022-10-26T09:35:45;3.50;;;2.63;;
568;SDS011;269;48.884;9.192;2022-10-26T09:38:18;2.57;;;2.20;;
568;SDS011;269;48.884;9.192;2022-10-26T09:40:52;2.83;;;2.27;;
568;SDS011;269;48.884;9.192;2022-10-26T09:43:24;2.50;;;2.30;;
568;SDS011;269;48.884;9.192;2022-10-26T09:45:55;3.03;;;2.60;;
568;SDS011;269;48.884;9.192;2022-10-26T09:48:25;3.73;;;2.87;;
568;SDS011;269;48.884;9.192;2022-10-26T09:50:57;4.50;;;2.23;;
568;SDS011;269;48.884;9.192;2022-10-26T09:53:24;4.43;;;2.57;;
568;SDS011;269;48.884;9.192;2022-10-26T09:55:53;4.47;;;2.03;;
568;SDS011;269;48.884;9.192;2022-10-26T09:58:28;3.57;;;2.00;;
568;SDS011;269;48.884;9.192;2022-10-26T10:00:57;3.90;;;2.50;;
568;SDS011;269;48.884;9.192;2022-10-26T10:03:26;5.33;;;2.63;;
568;SDS011;269;48.884;9.192;2022-10-26T10:05:55;5.70;;;2.50;;
568;SDS011;269;48.884;9.192;2022-10-26T10:08:41;6.40;;;3.43;;
568;SDS011;269;48.884;9.192;2022-10-26T10:11:09;5.73;;;2.63;;
568;SDS011;269;48.884;9.192;2022-10-26T10:13:40;5.57;;;2.77;;
568;SDS011;269;48.884;9.192;2022-10-26T10:16:10;6.10;;;2.90;;
568;SDS011;269;48.884;9.192;2022-10-26T10:18:39;3.60;;;2.50;;
568;SDS011;269;48.884;9.192;2022-10-26T10:21:07;5.77;;;3.37;;
568;SDS011;269;48.884;9.192;2022-10-26T10:23:35;7.33;;;3.50;;
568;SDS011;269;48.884;9.192;2022-10-26T10:26:13;6.60;;;4.30;;
568;SDS011;269;48.884;9.192;2022-10-26T10:28:42;6.10;;;3.93;;
568;SDS011;269;48.884;9.192;2022-10-26T10:31:21;5.10;;;3.87;;
568;SDS011;269;48.884;9.192;2022-10-26T10:33:53;5.60;;;3.20;;
568;SDS011;269;48.884;9.192;2022-10-26T10:36:20;5.23;;;3.30;;
568;SDS011;269;48.884;9.192;2022-10-26T10:38:50;7.50;;;3.00;;
568;SDS011;269;48.884;9.192;2022-10-26T10:41:19;4.40;;;2.47;;
568;SDS011;269;48.884;9.192;2022-10-26T10:43:52;4.87;;;2.70;;
568;SDS011;269;48.884;9.192;2022-10-26T10:46:25;4.90;;;2.73;;
568;SDS011;269;48.884;9.192;2022-10-26T10:49:00;6.23;;;2.33;;
568;SDS011;269;48.884;9.192;2022-10-26T10:51:29;6.13;;;2.80;;
568;SDS011;269;48.884;9.192;2022-10-26T10:54:02;4.90;;;3.27;;
568;SDS011;269;48.884;9.192;2022-10-26T10:56:31;5.20;;;2.90;;
568;SDS011;269;48.884;9.192;2022-10-26T10:59:18;4.73;;;3.77;;
568;SDS011;269;48.884;9.192;2022-10-26T11:05:21;6.57;;;3.10;;
568;SDS011;269;48.884;9.192;2022-10-26T11:08:03;6.60;;;3.40;;
568;SDS011;269;48.884;9.192;2022-10-26T11:10:39;3.57;;;2.77;;
568;SDS011;269;48.884;9.192;2022-10-26T11:13:12;4.90;;;2.57;;
568;SDS011;269;48.884;9.192;2022-10-26T11:15:45;4.93;;;2.77;;
568;SDS011;269;48.884;9.192;2022-10-26T11:18:15;3.83;;;2.30;;
568;SDS011;269;48.884;9.192;2022-10-26T11:20:48;5.87;;;2.80;;
568;SDS011;269;48.884;9.192;2022-10-26T11:23:22;3.97;;;2.17;;
568;SDS011;269;48.884;9.192;2022-10-26T11:25:54;5.47;;;2.47;;
568;SDS011;269;48.884;9.192;2022-10-26T11:28:33;4.33;;;2.80;;
568;SDS011;269;48.884;9.192;2022-10-26T11:31:06;5.30;;;2.17;;
568;SDS011;269;48.884;9.192;2022-10-26T11:33:39;3.70;;;2.27;;
568;SDS011;269;48.884;9.192;2022-10-26T11:36:10;7.03;;;2.90;;
568;SDS011;269;48.884;9.192;2022-10-26T11:38:41;3.50;;;2.50;;
568;SDS011;269;48.884;9.192;2022-10-26T11:41:14;4.67;;;2.50;;
568;SDS011;269;48.884;9.192;2022-10-26T11:43:46;5.10;;;2.40;;
568;SDS011;269;48.884;9.192;2022-10-26T11:46:17;4.90;;;2.20;;
568;SDS011;269;48.884;9.192;2022-10-26T11:48:50;3.23;;;2.00;;
568;SDS011;269;48.884;9.192;2022-10-26T11:51:31;3.57;;;2.23;;
568;SDS011;269;48.884;9.192;2022-10-26T11:54:04;3.77;;;1.73;;
568;SDS011;269;48.884;9.192;2022-10-26T11:56:39;4.03;;;1.97;;
568;SDS011;269;48.884;9.192;2022-10-26T11:59:12;3.03;;;1.80;;
568;SDS011;269;48.884;9.192;2022-10-26T12:01:47;4.33;;;2.13;;
568;SDS011;269;48.884;9.192;2022-10-26T12:04:16;6.47;;;2.00;;
568;SDS011;269;48.884;9.192;2022-10-26T12:06:46;3.83;;;1.80;;
568;SDS011;269;48.884;9.192;2022-10-26T12:09:17;4.20;;;2.07;;
568;SDS011;269;48.884;9.192;2022-10-26T12:11:48;4.10;;;2.40;;
568;SDS011;269;48.884;9.192;2022-10-26T12:14:23;2.40;;;1.60;;
568;SDS011;269;48.884;9.192;2022-10-26T12:16:58;2.97;;;1.50;;
568;SDS011;269;48.884;9.192;2022-10-26T12:19:30;2.87;;;1.87;;
568;SDS011;269;48.884;9.192;2022-10-26T12:22:01;2.00;;;1.80;;
568;SDS011;269;48.884;9.192;2022-10-26T12:24:30;4.30;;;1.70;;
568;SDS011;269;48.884;9.192;2022-10-26T12:27:00;2.37;;;1.67;;
568;SDS011;269;48.884;9.192;2022-10-26T12:29:39;3.17;;;2.00;;
568;SDS011;269;48.884;9.192;2022-10-26T12:35:33;4.53;;;2.03;;
568;SDS011;269;48.884;9.192;2022-10-26T12:41:17;3.43;;;2.07;;
568;SDS011;269;48.884;9.192;2022-10-26T12:43:47;2.90;;;2.20;;
568;SDS011;269;48.884;9.192;2022-10-26T12:52:20;3.70;;;1.90;;
568;SDS011;269;48.884;9.192;2022-10-26T12:55:02;3.90;;;2.40;;
568;SDS011;269;48.884;9.192;2022-10-26T12:57:46;4.40;;;1.97;;
568;SDS011;269;48.884;9.192;2022-10-26T13:00:23;3.63;;;1.80;;
568;SDS011;269;48.884;9.192;2022-10-26T13:02:54;4.27;;;2.20;;
568;SDS011;269;48.884;9.192;2022-10-26T13:05:38;4.73;;;2.00;;
568;SDS011;269;48.884;9.192;2022-10-26T13:08:38;3.70;;;2.10;;
568;SDS011;269;48.884;9.192;2022-10-26T13:11:11;5.93;;;2.23;;
568;SDS011;269;48.884;9.192;2022-10-26T13:13:42;2.93;;;1.67;;
568;SDS011;269;48.884;9.192;2022-10-26T13:16:10;4.83;;;1.87;;
568;SDS011;269;48.884;9.192;2022-10-26T13:18:41;2.93;;;2.13;;
568;SDS011;269;48.884;9.192;2022-10-26T13:21:13;3.70;;;1.90;;
568;SDS011;269;48.884;9.192;2022-10-26T13:23:45;3.07;;;2.00;;
568;SDS011;269;48.884;9.192;2022-10-26T13:26:22;4.57;;;2.30;;
568;SDS011;269;48.884;9.192;2022-10-26T13:28:52;4.03;;;2.17;;
568;SDS011;269;48.884;9.192;2022-10-26T13:34:23;2.73;;;1.60;;
568;SDS011;269;48.884;9.192;2022-10-26T13:36:58;3.70;;;2.00;;
568;SDS011;269;48.884;9.192;2022-10-26T13:39:31;3.60;;;2.03;;
568;SDS011;269;48.884;9.192;2022-10-26T13:42:03;4.40;;;2.10;;
568;SDS011;269;48.884;9.192;2022-10-26T13:44:34;2.80;;;1.93;;
568;SDS011;269;48.884;9.192;2022-10-26T13:47:08;6.00;;;2.10;;
568;SDS011;269;48.884;9.192;2022-10-26T13:49:38;3.70;;;2.33;;
568;SDS011;269;48.884;9.192;2022-10-26T13:52:11;3.70;;;1.97;;
568;SDS011;269;48.884;9.192;2022-10-26T13:54:43;5.53;;;2.10;;
568;SDS011;269;48.884;9.192;2022-10-26T13:57:15;2.70;;;1.70;;
568;SDS011;269;48.884;9.192;2022-10-26T13:59:45;3.63;;;2.00;;
568;SDS011;269;48.884;9.192;2022-10-26T14:02:17;3.90;;;2.00;;
568;SDS011;269;48.884;9.192;2022-10-26T14:04:50;5.00;;;2.03;;
568;SDS011;269;48.884;9.192;2022-10-26T14:07:20;3.00;;;1.97;;
568;SDS011;269;48.884;9.192;2022-10-26T14:09:52;5.03;;;2.17;;
568;SDS011;269;48.884;9.192;2022-10-26T14:12:21;3.10;;;1.90;;
568;SDS011;269;48.884;9.192;2022-10-26T14:14:50;2.50;;;1.83;;
568;SDS011;269;48.884;9.192;2022-10-26T14:17:18;4.37;;;2.20;;
568;SDS011;269;48.884;9.192;2022-10-26T14:19:48;3.37;;;2.10;;
568;SDS011;269;48.884;9.192;2022-10-26T14:22:18;2.10;;;1.87;;
568;SDS011;269;48.884;9.192;2022-10-26T14:24:51;4.10;;;2.17;;
568;SDS011;269;48.884;9.192;2022-10-26T14:27:22;3.03;;;1.80;;
568;SDS011;269;48.884;9.192;2022-10-26T14:29:51;3.23;;;2.00;;
568;SDS011;269;48.884;9.192;2022-10-26T14:32:20;3.07;;;1.90;;
568;SDS011;269;48.884;9.192;2022-10-26T14:34:53;4.07;;;2.17;;
568;SDS011;269;48.884;9.192;2022-10-26T14:37:23;3.70;;;1.93;;
568;SDS011;269;48.884;9.192;2022-10-26T14:39:59;3.50;;;1.97;;
568;SDS011;269;48.884;9.192;2022-10-26T14:42:27;3.90;;;1.80;;
568;SDS011;269;48.884;9.192;2022-10-26T14:44:57;3.30;;;1.80;;
568;SDS011;269;48.884;9.192;2022-10-26T14:47:27;5.20;;;2.30;;
568;SDS011;269;48.884;9.192;2022-10-26T14:49:56;6.00;;;2.23;;
568;SDS011;269;48.884;9.192;2022-10-26T14:52:25;3.77;;;2.17;;
568;SDS011;269;48.884;9.192;2022-10-26T14:54:57;2.60;;;1.73;;
568;SDS011;269;48.884;9.192;2022-10-26T14:57:28;3.47;;;2.20;;
568;SDS011;269;48.884;9.192;2022-10-26T15:00:02;4.37;;;2.10;;
568;SDS011;269;48.884;9.192;2022-10-26T15:02:37;3.13;;;1.83;;
568;SDS011;269;48.884;9.192;2022-10-26T15:05:15;4.23;;;2.00;;
568;SDS011;269;48.884;9.192;2022-10-26T15:07:44;4.63;;;2.13;;
568;SDS011;269;48.884;9.192;2022-10-26T15:13:23;5.30;;;1.90;;
568;SDS011;269;48.884;9.192;2022-10-26T15:15:54;4.57;;;2.13;;
568;SDS011;269;48.884;9.192;2022-10-26T15:18:37;3.93;;;1.67;;
568;SDS011;269;48.884;9.192;2022-10-26T15:21:25;3.27;;;2.17;;
568;SDS011;269;48.884;9.192;2022-10-26T15:23:56;5.30;;;2.90;;
568;SDS011;269;48.884;9.192;2022-10-26T15:26:29;3.00;;;2.10;;
568;SDS011;269;48.884;9.192;2022-10-26T15:28:56;3.60;;;1.70;;
568;SDS011;269;48.884;9.192;2022-10-26T15:31:26;3.57;;;2.73;;
568;SDS011;269;48.884;9.192;2022-10-26T15:34:12;4.30;;;2.07;;
568;SDS011;269;48.884;9.192;2022-10-26T15:36:40;3.97;;;2.13;;
568;SDS011;269;48.884;9.192;2022-10-26T15:39:08;4.50;;;2.00;;
568;SDS011;269;48.884;9.192;2022-10-26T15:41:40;2.50;;;2.13;;
568;SDS011;269;48.884;9.192;2022-10-26T15:44:13;4.77;;;2.23;;
568;SDS011;269;48.884;9.192;2022-10-26T15:46:43;4.60;;;2.17;;
568;SDS011;269;48.884;9.192;2022-10-26T15:49:13;2.37;;;1.70;;
568;SDS011;269;48.884;9.192;2022-10-26T15:51:43;3.83;;;2.27;;
568;SDS011;269;48.884;9.192;2022-10-26T15:54:11;5.43;;;2.00;;
568;SDS011;269;48.884;9.192;2022-10-26T15:56:40;2.60;;;1.90;;
568;SDS011;269;48.884;9.192;2022-10-26T15:59:10;5.13;;;2.17;;
568;SDS011;269;48.884;9.192;2022-10-26T16:01:40;3.10;;;2.03;;
568;SDS011;269;48.884;9.192;2022-10-26T16:04:07;4.93;;;2.17;;
568;SDS011;269;48.884;9.192;2022-10-26T16:06:35;4.77;;;2.10;;
568;SDS011;269;48.884;9.192;2022-10-26T16:11:36;6.57;;;2.70;;
568;SDS011;269;48.884;9.192;2022-10-26T16:14:06;2.50;;;2.07;;
568;SDS011;269;48.884;9.192;2022-10-26T16:16:33;6.03;;;2.77;;
568;SDS011;269;48.884;9.192;2022-10-26T16:19:01;2.77;;;2.50;;
568;SDS011;269;48.884;9.192;2022-10-26T16:21:28;5.03;;;2.10;;
568;SDS011;269;48.884;9.192;2022-10-26T16:23:56;3.90;;;1.80;;
568;SDS011;269;48.884;9.192;2022-10-26T16:26:23;4.90;;;2.80;;
568;SDS011;269;48.884;9.192;2022-10-26T16:28:50;6.03;;;2.20;;
568;SDS011;269;48.884;9.192;2022-10-26T16:31:19;3.77;;;2.00;;
568;SDS011;269;48.884;9.192;2022-10-26T16:33:47;2.73;;;2.40;;
568;SDS011;269;48.884;9.192;2022-10-26T16:36:18;4.90;;;2.10;;
568;SDS011;269;48.884;9.192;2022-10-26T16:38:45;4.03;;;2.47;;